createdAt,value
2019-05-07T00:01:03.973Z,11.10
2019-05-07T00:06:09.114Z,9.10
2019-05-07T00:11:13.836Z,10.77
2019-05-07T00:16:17.997Z,11.27
2019-05-07T00:21:23.586Z,14.00
2019-05-07T00:26:28.491Z,11.67
2019-05-07T00:31:33.764Z,11.37
2019-05-07T00:36:38.477Z,11.20
2019-05-07T00:41:42.856Z,13.87
2019-05-07T00:46:47.206Z,11.73
2019-05-07T00:51:53.352Z,12.53
2019-05-07T00:56:59.146Z,11.80
2019-05-07T01:02:04.964Z,11.63
2019-05-07T01:07:12.207Z,15.43
2019-05-07T01:12:17.912Z,12.10
2019-05-07T01:17:24.305Z,11.33
2019-05-07T01:32:53.736Z,16.07
2019-05-07T01:37:58.444Z,14.63
2019-05-07T01:43:02.960Z,10.10
2019-05-07T01:48:07.673Z,15.97
2019-05-07T01:53:12.358Z,11.17
2019-05-07T01:58:16.657Z,16.77
2019-05-07T02:03:23.041Z,16.77
2019-05-07T02:08:26.899Z,12.47
2019-05-07T02:13:31.148Z,12.10
2019-05-07T02:18:35.309Z,13.30
2019-05-07T02:23:39.415Z,18.50
2019-05-07T02:28:43.555Z,16.67
2019-05-07T02:33:48.150Z,14.97
2019-05-07T02:38:53.226Z,14.63
2019-05-07T02:44:00.039Z,16.40
2019-05-07T02:49:03.504Z,16.93
2019-05-07T02:54:07.753Z,12.23
2019-05-07T02:59:13.735Z,13.37
2019-05-07T03:04:18.297Z,11.20
2019-05-07T03:09:22.898Z,11.97
2019-05-07T03:14:27.097Z,12.00
2019-05-07T03:19:33.176Z,13.43
2019-05-07T03:24:37.319Z,9.33
2019-05-07T03:29:44.268Z,12.50
2019-05-07T03:34:47.934Z,12.37
2019-05-07T03:39:53.760Z,11.77
2019-05-07T03:44:59.388Z,13.73
2019-05-07T03:50:04.100Z,16.37
2019-05-07T03:55:09.090Z,14.17
2019-05-07T04:00:14.297Z,14.20
2019-05-07T04:05:22.929Z,14.53
2019-05-07T04:10:26.044Z,14.33
2019-05-07T04:15:33.066Z,18.60
2019-05-07T04:20:36.777Z,13.70
2019-05-07T04:25:43.574Z,14.03
2019-05-07T04:30:46.888Z,17.67
2019-05-07T04:35:53.818Z,14.97
2019-05-07T04:40:57.129Z,14.27
2019-05-07T04:46:03.189Z,15.03
2019-05-07T04:51:07.251Z,14.90
2019-05-07T04:56:14.022Z,16.20
2019-05-07T05:01:17.710Z,10.57
2019-05-07T05:06:24.196Z,10.33
2019-05-07T05:11:28.012Z,11.00
2019-05-07T05:16:32.741Z,10.80
2019-05-07T05:21:37.735Z,16.07
2019-05-07T05:26:42.034Z,11.40
2019-05-07T05:31:46.549Z,7.53
2019-05-07T05:36:53.176Z,11.63
2019-05-07T05:41:57.486Z,10.13
2019-05-07T05:47:02.376Z,12.10
2019-05-07T05:52:07.082Z,11.30
2019-05-07T05:57:12.255Z,11.93
2019-05-07T06:02:16.774Z,11.90
2019-05-07T06:07:22.666Z,11.30
2019-05-07T06:12:27.066Z,11.77
2019-05-07T06:17:32.101Z,8.53
2019-05-07T06:22:36.553Z,6.90
2019-05-07T06:27:41.786Z,10.13
2019-05-07T06:32:46.154Z,12.53
2019-05-07T06:37:52.177Z,10.83
2019-05-07T06:42:56.848Z,16.13
2019-05-07T06:48:02.975Z,13.87
2019-05-07T06:53:06.989Z,17.83
2019-05-07T06:58:12.334Z,10.87
2019-05-07T07:03:16.715Z,10.63
2019-05-07T07:08:22.967Z,9.97
2019-05-07T07:13:28.535Z,13.10
2019-05-07T07:18:33.026Z,12.17
2019-05-07T07:23:37.203Z,15.00
2019-05-07T07:28:42.950Z,15.00
2019-05-07T07:33:47.601Z,13.33
2019-05-07T07:38:52.697Z,12.67
2019-05-07T07:43:57.232Z,14.63
2019-05-07T07:49:10.228Z,12.60
2019-05-07T07:54:07.756Z,13.20
2019-05-07T07:59:12.647Z,15.83
2019-05-07T08:04:17.060Z,12.07
2019-05-07T08:09:23.977Z,10.57
2019-05-07T08:14:27.330Z,12.33
2019-05-07T08:19:32.787Z,16.77
2019-05-07T08:24:37.378Z,16.00
2019-05-07T08:29:43.861Z,12.30
2019-05-07T08:34:52.135Z,8.33
2019-05-07T08:39:56.397Z,12.27
2019-05-07T08:45:02.760Z,9.03
2019-05-07T08:50:07.464Z,10.60
2019-05-07T08:55:12.711Z,13.33
2019-05-07T09:00:18.671Z,13.17
2019-05-07T09:05:23.112Z,11.77
2019-05-07T09:10:27.508Z,10.70
2019-05-07T09:15:32.121Z,14.80
2019-05-07T09:20:36.592Z,12.10
2019-05-07T09:25:41.635Z,11.83
2019-05-07T09:30:46.155Z,16.73
2019-05-07T09:35:52.693Z,15.47
2019-05-07T09:40:57.133Z,18.87
2019-05-07T09:46:02.714Z,12.60
2019-05-07T09:51:07.892Z,13.20
2019-05-07T09:56:12.423Z,16.90
2019-05-07T10:01:16.831Z,17.57
2019-05-07T10:06:22.905Z,12.97
2019-05-07T10:11:27.536Z,17.53
2019-05-07T10:16:33.494Z,15.73
2019-05-07T10:21:37.977Z,21.13
2019-05-07T10:26:43.477Z,18.70
2019-05-07T10:31:47.851Z,18.53
2019-05-07T10:36:52.657Z,15.40
2019-05-07T10:41:57.896Z,19.07
2019-05-07T10:47:03.306Z,17.90
2019-05-07T10:52:07.597Z,21.70
2019-05-07T10:57:12.002Z,18.17
2019-05-07T11:02:16.334Z,18.13
2019-05-07T11:07:22.250Z,18.20
2019-05-07T11:12:27.016Z,20.23
2019-05-07T11:17:32.679Z,18.13
2019-05-07T11:22:37.412Z,22.03
2019-05-07T11:27:42.190Z,20.03
2019-05-07T11:32:46.697Z,24.30
2019-05-07T11:37:52.014Z,15.27
2019-05-07T11:42:56.633Z,19.37
2019-05-07T11:48:01.969Z,19.03
2019-05-07T11:53:07.952Z,14.97
2019-05-07T11:58:12.845Z,21.50
2019-05-07T12:03:17.207Z,14.40
2019-05-07T12:08:26.512Z,14.90
2019-05-07T12:13:27.985Z,18.63
2019-05-07T12:18:35.801Z,14.77
2019-05-07T12:23:42.025Z,16.77
2019-05-07T12:28:46.447Z,15.50
2019-05-07T12:33:52.161Z,16.67
2019-05-07T12:38:56.539Z,17.63
2019-05-07T12:44:03.152Z,15.40
2019-05-07T12:49:07.601Z,16.87
2019-05-07T12:54:12.062Z,10.83
2019-05-07T12:59:16.664Z,13.70
2019-05-07T13:04:22.100Z,14.70
2019-05-07T13:09:26.468Z,9.17
2019-05-07T13:14:30.777Z,9.63
2019-05-07T13:19:35.054Z,13.00
2019-05-07T13:24:39.756Z,12.80
2019-05-07T13:29:44.976Z,10.33
2019-05-07T13:34:51.893Z,9.97
2019-05-07T13:39:55.419Z,11.77
2019-05-07T13:45:00.111Z,12.73
2019-05-07T13:50:06.126Z,8.63
2019-05-07T13:55:12.850Z,14.63
2019-05-07T14:00:18.580Z,12.50
2019-05-07T14:05:24.868Z,10.43
2019-05-07T14:10:29.164Z,11.60
2019-05-07T14:15:35.054Z,11.60
2019-05-07T14:20:39.429Z,15.87
2019-05-07T14:25:44.546Z,11.47
2019-05-07T14:30:48.901Z,12.13
2019-05-07T14:35:53.853Z,9.77
2019-05-07T14:41:00.113Z,12.63
2019-05-07T14:46:04.902Z,13.67
2019-05-07T14:51:09.293Z,11.80
2019-05-07T14:56:14.282Z,14.40
2019-05-07T15:01:18.883Z,15.77
2019-05-07T15:06:23.425Z,16.13
2019-05-07T15:11:27.881Z,14.07
2019-05-07T15:16:32.316Z,12.83
2019-05-07T15:21:36.680Z,18.23
2019-05-07T15:26:42.014Z,13.27
2019-05-07T15:31:46.421Z,15.57
2019-05-07T15:36:52.711Z,16.83
2019-05-07T15:41:57.298Z,16.43
2019-05-07T15:47:02.585Z,13.37
2019-05-07T15:52:07.842Z,14.13
2019-05-07T15:57:12.691Z,14.63
2019-05-07T16:02:17.120Z,13.20
2019-05-07T16:07:22.517Z,15.23
2019-05-07T16:12:26.911Z,14.70
2019-05-07T16:17:32.851Z,19.00
2019-05-07T16:22:39.054Z,13.93
2019-05-07T16:27:43.344Z,16.03
2019-05-07T16:32:47.979Z,14.40
2019-05-07T16:37:52.484Z,16.93
2019-05-07T16:42:56.758Z,13.63
2019-05-07T16:48:03.037Z,20.47
2019-05-07T16:53:06.718Z,19.67
2019-05-07T16:58:12.530Z,16.93
2019-05-07T17:03:16.806Z,12.70
2019-05-07T17:08:23.651Z,16.27
2019-05-07T17:13:27.877Z,18.50
2019-05-07T17:18:32.784Z,17.03
2019-05-07T17:23:44.617Z,16.03
2019-05-07T17:28:45.311Z,20.03
2019-05-07T17:33:51.567Z,18.33
2019-05-07T17:38:55.711Z,16.00
2019-05-07T17:43:59.990Z,17.33
2019-05-07T17:49:06.698Z,15.57
2019-05-07T17:54:12.855Z,26.27
2019-05-07T17:59:16.818Z,22.47
2019-05-07T18:04:21.098Z,25.67
2019-05-07T18:09:25.449Z,23.67
2019-05-07T18:14:32.208Z,25.33
2019-05-07T18:19:37.637Z,22.07
2019-05-07T18:24:41.977Z,25.93
2019-05-07T18:29:46.285Z,23.27
2019-05-07T18:34:51.909Z,24.77
2019-05-07T18:39:56.258Z,29.37
2019-05-07T18:45:02.137Z,33.40
2019-05-07T18:50:12.678Z,30.83
2019-05-07T18:55:14.730Z,29.57
2019-05-07T19:00:22.020Z,27.37
2019-05-07T19:05:25.912Z,27.20
2019-05-07T19:10:30.104Z,30.93
2019-05-07T19:15:34.412Z,26.83
2019-05-07T19:20:42.172Z,32.10
2019-05-07T19:25:47.438Z,31.20
2019-05-07T19:30:52.853Z,32.33
2019-05-07T19:35:59.038Z,38.30
2019-05-07T19:41:04.618Z,31.50
2019-05-07T19:46:08.792Z,67.03
2019-05-07T19:51:12.812Z,62.33
2019-05-07T19:56:17.051Z,47.10
2019-05-07T20:01:22.792Z,43.67
2019-05-07T20:06:27.038Z,54.27
2019-05-07T20:11:32.668Z,167.67
2019-05-07T20:16:37.151Z,511.80
2019-05-07T20:21:42.613Z,522.30
2019-05-07T20:26:47.851Z,92.70
2019-05-07T20:31:53.523Z,267.67
2019-05-07T20:37:02.056Z,283.17
2019-05-07T20:42:08.165Z,218.23
2019-05-07T20:47:12.812Z,19.73
2019-05-07T20:52:17.352Z,21.83
2019-05-07T20:57:23.178Z,20.60
2019-05-07T21:02:41.688Z,22.37
2019-05-07T21:07:34.798Z,17.20
2019-05-07T21:12:38.951Z,17.40
2019-05-07T21:17:45.839Z,15.67
2019-05-07T21:22:51.908Z,20.17
2019-05-07T21:27:58.424Z,27.73
2019-05-07T21:33:02.611Z,29.90
2019-05-07T21:38:07.299Z,38.00
2019-05-07T21:43:14.180Z,49.63
2019-05-07T21:48:18.251Z,39.37
2019-05-07T21:53:22.944Z,27.13
2019-05-07T21:58:27.303Z,249.03
2019-05-07T22:03:32.432Z,269.67
2019-05-07T22:08:37.272Z,32.47
2019-05-07T22:13:43.485Z,22.17
2019-05-07T22:18:48.863Z,28.90
2019-05-07T22:23:53.031Z,8.53
2019-05-07T22:28:58.511Z,8.43
2019-05-07T22:34:03.143Z,11.93
2019-05-07T22:39:07.810Z,15.30
2019-05-07T22:44:12.123Z,10.03
2019-05-07T22:49:16.457Z,12.37
2019-05-07T22:54:22.398Z,13.23
2019-05-07T22:59:26.263Z,16.00
2019-05-07T23:04:32.447Z,14.67
2019-05-07T23:09:36.677Z,12.90
2019-05-07T23:14:41.211Z,15.87
2019-05-07T23:19:45.291Z,18.13
2019-05-07T23:24:51.873Z,9.20
2019-05-07T23:29:55.779Z,12.83
2019-05-07T23:35:02.503Z,8.43
2019-05-07T23:40:08.243Z,7.90
2019-05-07T23:45:13.722Z,5.10
2019-05-07T23:50:17.891Z,8.80
2019-05-07T23:55:23.783Z,7.57
